sensor_id;sensor_type;location;lat;lon;timestamp;temperature;humidity
24152;DHT22;12311;50.866;4.332;2022-08-03T00:01:33;22.70;99.90
24152;DHT22;12311;50.866;4.332;2022-08-03T00:03:58;22.70;99.90
24152;DHT22;12311;50.866;4.332;2022-08-03T00:06:24;22.70;99.90
24152;DHT22;12311;50.866;4.332;2022-08-03T00:08:50;22.70;99.90
24152;DHT22;12311;50.866;4.332;2022-08-03T00:11:16;22.70;99.90
24152;DHT22;12311;50.866;4.332;2022-08-03T00:13:42;22.60;99.90
24152;DHT22;12311;50.866;4.332;2022-08-03T00:16:08;22.70;99.90
24152;DHT22;12311;50.866;4.332;2022-08-03T00:18:35;22.60;99.90
24152;DHT22;12311;50.866;4.332;2022-08-03T00:21:01;22.50;99.90
24152;DHT22;12311;50.866;4.332;2022-08-03T00:23:27;22.40;99.90
24152;DHT22;12311;50.866;4.332;2022-08-03T00:25:53;22.40;99.90
24152;DHT22;12311;50.866;4.332;2022-08-03T00:28:18;22.30;99.90
24152;DHT22;12311;50.866;4.332;2022-08-03T00:30:44;22.30;99.90
24152;DHT22;12311;50.866;4.332;2022-08-03T00:33:10;22.40;99.90
24152;DHT22;12311;50.866;4.332;2022-08-03T00:35:35;22.50;99.90
24152;DHT22;12311;50.866;4.332;2022-08-03T00:38:01;22.30;99.90
24152;DHT22;12311;50.866;4.332;2022-08-03T00:40:27;22.30;99.90
24152;DHT22;12311;50.866;4.332;2022-08-03T00:43:02;22.20;99.90
24152;DHT22;12311;50.866;4.332;2022-08-03T00:45:30;22.10;99.90
24152;DHT22;12311;50.866;4.332;2022-08-03T00:47:57;22.10;99.90
24152;DHT22;12311;50.866;4.332;2022-08-03T00:50:24;22.00;99.90
24152;DHT22;12311;50.866;4.332;2022-08-03T00:52:53;22.10;99.90
24152;DHT22;12311;50.866;4.332;2022-08-03T00:55:19;22.00;99.90
24152;DHT22;12311;50.866;4.332;2022-08-03T00:57:45;21.90;99.90
24152;DHT22;12311;50.866;4.332;2022-08-03T01:00:14;21.90;99.90
24152;DHT22;12311;50.866;4.332;2022-08-03T01:02:40;21.90;99.90
24152;DHT22;12311;50.866;4.332;2022-08-03T01:05:06;21.90;99.90
24152;DHT22;12311;50.866;4.332;2022-08-03T01:10:32;21.70;99.90
24152;DHT22;12311;50.866;4.332;2022-08-03T01:18:31;21.60;99.90
24152;DHT22;12311;50.866;4.332;2022-08-03T01:21:17;21.60;99.90
24152;DHT22;12311;50.866;4.332;2022-08-03T01:32:17;21.50;99.90
24152;DHT22;12311;50.866;4.332;2022-08-03T01:34:58;21.50;99.90
24152;DHT22;12311;50.866;4.332;2022-08-03T01:37:30;21.50;99.90
24152;DHT22;12311;50.866;4.332;2022-08-03T01:39:57;21.50;99.90
24152;DHT22;12311;50.866;4.332;2022-08-03T01:42:26;21.40;99.90
24152;DHT22;12311;50.866;4.332;2022-08-03T01:44:54;21.40;99.90
24152;DHT22;12311;50.866;4.332;2022-08-03T01:47:21;21.40;99.90
24152;DHT22;12311;50.866;4.332;2022-08-03T01:49:48;21.40;99.90
24152;DHT22;12311;50.866;4.332;2022-08-03T01:52:19;21.30;99.90
24152;DHT22;12311;50.866;4.332;2022-08-03T01:54:48;21.30;99.90
24152;DHT22;12311;50.866;4.332;2022-08-03T01:57:15;21.30;99.90
24152;DHT22;12311;50.866;4.332;2022-08-03T01:59:43;21.20;99.90
24152;DHT22;12311;50.866;4.332;2022-08-03T02:02:12;21.30;99.90
24152;DHT22;12311;50.866;4.332;2022-08-03T02:04:39;21.20;99.90
24152;DHT22;12311;50.866;4.332;2022-08-03T02:07:05;21.20;99.90
24152;DHT22;12311;50.866;4.332;2022-08-03T02:09:33;21.20;99.90
24152;DHT22;12311;50.866;4.332;2022-08-03T02:12:01;21.10;99.90
24152;DHT22;12311;50.866;4.332;2022-08-03T02:14:28;21.10;99.90
24152;DHT22;12311;50.866;4.332;2022-08-03T02:16:56;21.10;99.90
24152;DHT22;12311;50.866;4.332;2022-08-03T02:19:24;21.10;99.90
24152;DHT22;12311;50.866;4.332;2022-08-03T02:21:52;21.00;99.90
24152;DHT22;12311;50.866;4.332;2022-08-03T02:24:18;21.00;99.90
24152;DHT22;12311;50.866;4.332;2022-08-03T02:26:44;21.00;99.90
24152;DHT22;12311;50.866;4.332;2022-08-03T02:29:17;21.00;99.90
24152;DHT22;12311;50.866;4.332;2022-08-03T02:31:45;20.90;99.90
24152;DHT22;12311;50.866;4.332;2022-08-03T02:34:13;20.90;99.90
24152;DHT22;12311;50.866;4.332;2022-08-03T02:36:41;20.90;99.90
24152;DHT22;12311;50.866;4.332;2022-08-03T02:39:10;21.00;99.90
24152;DHT22;12311;50.866;4.332;2022-08-03T02:41:42;20.90;99.90
24152;DHT22;12311;50.866;4.332;2022-08-03T02:44:10;21.00;99.90
24152;DHT22;12311;50.866;4.332;2022-08-03T02:46:38;21.00;99.90
24152;DHT22;12311;50.866;4.332;2022-08-03T02:49:05;20.90;99.90
24152;DHT22;12311;50.866;4.332;2022-08-03T02:51:34;20.90;99.90
24152;DHT22;12311;50.866;4.332;2022-08-03T02:54:04;20.80;99.90
24152;DHT22;12311;50.866;4.332;2022-08-03T02:56:31;20.70;99.90
24152;DHT22;12311;50.866;4.332;2022-08-03T02:58:58;20.70;99.90
24152;DHT22;12311;50.866;4.332;2022-08-03T03:01:27;20.70;99.90
24152;DHT22;12311;50.866;4.332;2022-08-03T03:03:55;20.70;99.90
24152;DHT22;12311;50.866;4.332;2022-08-03T03:06:25;20.70;99.90
24152;DHT22;12311;50.866;4.332;2022-08-03T03:08:53;20.60;99.90
24152;DHT22;12311;50.866;4.332;2022-08-03T03:11:20;20.50;99.90
24152;DHT22;12311;50.866;4.332;2022-08-03T03:13:50;20.50;99.90
24152;DHT22;12311;50.866;4.332;2022-08-03T03:16:17;20.50;99.90
24152;DHT22;12311;50.866;4.332;2022-08-03T03:18:44;20.50;99.90
24152;DHT22;12311;50.866;4.332;2022-08-03T03:21:12;20.50;99.90
24152;DHT22;12311;50.866;4.332;2022-08-03T03:23:39;20.50;99.90
24152;DHT22;12311;50.866;4.332;2022-08-03T03:26:06;20.60;99.90
24152;DHT22;12311;50.866;4.332;2022-08-03T03:28:32;20.60;99.90
24152;DHT22;12311;50.866;4.332;2022-08-03T03:31:02;20.50;99.90
24152;DHT22;12311;50.866;4.332;2022-08-03T03:33:28;20.40;99.90
24152;DHT22;12311;50.866;4.332;2022-08-03T03:35:54;20.50;99.90
24152;DHT22;12311;50.866;4.332;2022-08-03T03:38:20;20.50;99.90
24152;DHT22;12311;50.866;4.332;2022-08-03T03:40:46;20.50;99.90
24152;DHT22;12311;50.866;4.332;2022-08-03T03:43:12;20.40;99.90
24152;DHT22;12311;50.866;4.332;2022-08-03T03:45:41;20.40;99.90
24152;DHT22;12311;50.866;4.332;2022-08-03T03:48:07;20.30;99.90
24152;DHT22;12311;50.866;4.332;2022-08-03T03:50:35;20.30;99.90
24152;DHT22;12311;50.866;4.332;2022-08-03T03:53:03;20.30;99.90
24152;DHT22;12311;50.866;4.332;2022-08-03T03:55:29;20.30;99.90
24152;DHT22;12311;50.866;4.332;2022-08-03T03:57:55;20.30;99.90
24152;DHT22;12311;50.866;4.332;2022-08-03T04:00:21;20.40;99.90
24152;DHT22;12311;50.866;4.332;2022-08-03T04:02:47;20.40;99.90
24152;DHT22;12311;50.866;4.332;2022-08-03T04:05:13;20.40;99.90
24152;DHT22;12311;50.866;4.332;2022-08-03T04:08:01;20.30;99.90
24152;DHT22;12311;50.866;4.332;2022-08-03T04:11:16;20.20;99.90
24152;DHT22;12311;50.866;4.332;2022-08-03T04:13:43;20.20;99.90
24152;DHT22;12311;50.866;4.332;2022-08-03T04:16:13;20.00;99.90
24152;DHT22;12311;50.866;4.332;2022-08-03T04:18:45;20.00;99.90
24152;DHT22;12311;50.866;4.332;2022-08-03T04:21:14;20.00;99.90
24152;DHT22;12311;50.866;4.332;2022-08-03T04:23:45;20.00;99.90
24152;DHT22;12311;50.866;4.332;2022-08-03T04:26:14;20.10;99.90
24152;DHT22;12311;50.866;4.332;2022-08-03T04:28:42;20.10;99.90
24152;DHT22;12311;50.866;4.332;2022-08-03T04:31:11;20.10;99.90
24152;DHT22;12311;50.866;4.332;2022-08-03T04:33:38;20.00;99.90
24152;DHT22;12311;50.866;4.332;2022-08-03T04:36:08;20.00;99.90
24152;DHT22;12311;50.866;4.332;2022-08-03T04:38:39;20.00;99.90
24152;DHT22;12311;50.866;4.332;2022-08-03T04:41:09;20.00;99.90
24152;DHT22;12311;50.866;4.332;2022-08-03T04:43:35;19.90;99.90
24152;DHT22;12311;50.866;4.332;2022-08-03T04:46:04;19.80;99.90
24152;DHT22;12311;50.866;4.332;2022-08-03T04:48:31;19.90;99.90
24152;DHT22;12311;50.866;4.332;2022-08-03T04:50:57;19.90;99.90
24152;DHT22;12311;50.866;4.332;2022-08-03T04:53:25;19.90;99.90
24152;DHT22;12311;50.866;4.332;2022-08-03T04:55:50;20.00;99.90
24152;DHT22;12311;50.866;4.332;2022-08-03T04:58:16;20.00;99.90
24152;DHT22;12311;50.866;4.332;2022-08-03T05:00:42;20.00;99.90
24152;DHT22;12311;50.866;4.332;2022-08-03T05:03:09;20.00;99.90
24152;DHT22;12311;50.866;4.332;2022-08-03T05:05:35;20.10;99.90
24152;DHT22;12311;50.866;4.332;2022-08-03T05:08:01;20.20;99.90
24152;DHT22;12311;50.866;4.332;2022-08-03T05:10:26;20.20;99.90
24152;DHT22;12311;50.866;4.332;2022-08-03T05:12:52;20.20;99.90
24152;DHT22;12311;50.866;4.332;2022-08-03T05:15:18;20.20;99.90
24152;DHT22;12311;50.866;4.332;2022-08-03T05:17:44;20.20;99.90
24152;DHT22;12311;50.866;4.332;2022-08-03T05:20:09;20.20;99.90
24152;DHT22;12311;50.866;4.332;2022-08-03T05:22:35;20.30;99.90
24152;DHT22;12311;50.866;4.332;2022-08-03T05:25:01;20.40;99.90
24152;DHT22;12311;50.866;4.332;2022-08-03T05:27:27;20.40;99.90
24152;DHT22;12311;50.866;4.332;2022-08-03T05:29:53;20.30;99.90
24152;DHT22;12311;50.866;4.332;2022-08-03T05:32:19;20.40;99.90
24152;DHT22;12311;50.866;4.332;2022-08-03T05:34:44;20.40;99.90
24152;DHT22;12311;50.866;4.332;2022-08-03T05:37:10;20.40;99.90
24152;DHT22;12311;50.866;4.332;2022-08-03T05:39:36;20.40;99.90
24152;DHT22;12311;50.866;4.332;2022-08-03T05:42:02;20.40;99.90
24152;DHT22;12311;50.866;4.332;2022-08-03T05:44:28;20.40;99.90
24152;DHT22;12311;50.866;4.332;2022-08-03T05:46:54;20.40;99.90
24152;DHT22;12311;50.866;4.332;2022-08-03T05:49:19;20.50;99.90
24152;DHT22;12311;50.866;4.332;2022-08-03T05:51:45;20.60;99.90
24152;DHT22;12311;50.866;4.332;2022-08-03T05:54:12;20.60;99.90
24152;DHT22;12311;50.866;4.332;2022-08-03T05:56:38;20.70;99.90
24152;DHT22;12311;50.866;4.332;2022-08-03T05:59:05;20.80;99.90
24152;DHT22;12311;50.866;4.332;2022-08-03T06:01:31;20.80;99.90
24152;DHT22;12311;50.866;4.332;2022-08-03T06:03:57;20.90;99.90
24152;DHT22;12311;50.866;4.332;2022-08-03T06:06:23;20.90;99.90
24152;DHT22;12311;50.866;4.332;2022-08-03T06:08:49;21.00;99.90
24152;DHT22;12311;50.866;4.332;2022-08-03T06:11:15;21.20;99.90
24152;DHT22;12311;50.866;4.332;2022-08-03T06:13:41;21.20;99.90
24152;DHT22;12311;50.866;4.332;2022-08-03T06:16:07;21.20;99.90
24152;DHT22;12311;50.866;4.332;2022-08-03T06:18:33;21.40;99.90
24152;DHT22;12311;50.866;4.332;2022-08-03T06:20:58;21.30;99.90
24152;DHT22;12311;50.866;4.332;2022-08-03T06:23:24;21.30;99.90
24152;DHT22;12311;50.866;4.332;2022-08-03T06:25:50;21.40;99.90
24152;DHT22;12311;50.866;4.332;2022-08-03T06:28:15;21.40;99.90
24152;DHT22;12311;50.866;4.332;2022-08-03T06:30:43;21.50;99.90
24152;DHT22;12311;50.866;4.332;2022-08-03T06:33:08;21.70;99.90
24152;DHT22;12311;50.866;4.332;2022-08-03T06:35:34;21.90;99.90
24152;DHT22;12311;50.866;4.332;2022-08-03T06:38:00;21.90;99.90
24152;DHT22;12311;50.866;4.332;2022-08-03T06:40:27;21.90;99.90
24152;DHT22;12311;50.866;4.332;2022-08-03T06:43:06;22.10;99.90
24152;DHT22;12311;50.866;4.332;2022-08-03T06:45:32;22.20;99.90
24152;DHT22;12311;50.866;4.332;2022-08-03T06:50:26;22.30;99.90
24152;DHT22;12311;50.866;4.332;2022-08-03T06:52:52;22.50;99.90
24152;DHT22;12311;50.866;4.332;2022-08-03T06:55:18;22.60;99.90
24152;DHT22;12311;50.866;4.332;2022-08-03T06:57:43;22.60;99.90
24152;DHT22;12311;50.866;4.332;2022-08-03T07:00:09;22.50;99.90
24152;DHT22;12311;50.866;4.332;2022-08-03T07:02:36;22.50;99.90
24152;DHT22;12311;50.866;4.332;2022-08-03T07:05:02;22.50;99.90
24152;DHT22;12311;50.866;4.332;2022-08-03T07:07:28;22.60;99.90
24152;DHT22;12311;50.866;4.332;2022-08-03T07:09:54;22.70;99.90
24152;DHT22;12311;50.866;4.332;2022-08-03T07:12:20;22.70;99.90
24152;DHT22;12311;50.866;4.332;2022-08-03T07:14:45;22.70;99.90
24152;DHT22;12311;50.866;4.332;2022-08-03T07:17:11;22.80;99.90
24152;DHT22;12311;50.866;4.332;2022-08-03T07:19:36;22.80;99.90
24152;DHT22;12311;50.866;4.332;2022-08-03T07:22:02;23.00;99.90
24152;DHT22;12311;50.866;4.332;2022-08-03T07:24:28;23.00;99.90
24152;DHT22;12311;50.866;4.332;2022-08-03T07:26:54;23.20;99.90
24152;DHT22;12311;50.866;4.332;2022-08-03T07:29:19;23.20;99.90
24152;DHT22;12311;50.866;4.332;2022-08-03T07:31:45;23.30;99.90
24152;DHT22;12311;50.866;4.332;2022-08-03T07:34:11;23.40;99.90
24152;DHT22;12311;50.866;4.332;2022-08-03T07:36:36;23.60;99.90
24152;DHT22;12311;50.866;4.332;2022-08-03T07:39:02;23.70;99.90
24152;DHT22;12311;50.866;4.332;2022-08-03T07:41:28;23.90;99.90
24152;DHT22;12311;50.866;4.332;2022-08-03T07:43:54;24.00;99.90
24152;DHT22;12311;50.866;4.332;2022-08-03T07:46:20;24.00;99.90
24152;DHT22;12311;50.866;4.332;2022-08-03T07:48:45;24.20;99.90
24152;DHT22;12311;50.866;4.332;2022-08-03T07:51:11;24.30;99.90
24152;DHT22;12311;50.866;4.332;2022-08-03T07:53:37;24.30;99.90
24152;DHT22;12311;50.866;4.332;2022-08-03T07:56:02;24.30;99.90
24152;DHT22;12311;50.866;4.332;2022-08-03T07:58:28;24.30;99.90
24152;DHT22;12311;50.866;4.332;2022-08-03T08:00:54;24.50;99.90
24152;DHT22;12311;50.866;4.332;2022-08-03T08:03:19;24.40;99.90
24152;DHT22;12311;50.866;4.332;2022-08-03T08:05:46;24.20;99.90
24152;DHT22;12311;50.866;4.332;2022-08-03T08:08:12;24.10;99.90
24152;DHT22;12311;50.866;4.332;2022-08-03T08:10:38;24.20;99.90
24152;DHT22;12311;50.866;4.332;2022-08-03T08:13:04;24.30;99.90
24152;DHT22;12311;50.866;4.332;2022-08-03T08:15:30;24.40;99.90
24152;DHT22;12311;50.866;4.332;2022-08-03T08:17:59;24.60;99.90
24152;DHT22;12311;50.866;4.332;2022-08-03T08:20:28;24.80;99.90
24152;DHT22;12311;50.866;4.332;2022-08-03T08:22:56;24.80;99.90
24152;DHT22;12311;50.866;4.332;2022-08-03T08:25:22;25.00;99.90
24152;DHT22;12311;50.866;4.332;2022-08-03T08:27:48;25.20;99.90
24152;DHT22;12311;50.866;4.332;2022-08-03T08:30:17;25.30;99.90
24152;DHT22;12311;50.866;4.332;2022-08-03T08:32:44;25.40;99.90
24152;DHT22;12311;50.866;4.332;2022-08-03T08:35:11;25.20;99.90
24152;DHT22;12311;50.866;4.332;2022-08-03T08:37:37;25.20;99.90
24152;DHT22;12311;50.866;4.332;2022-08-03T08:40:04;25.40;99.90
24152;DHT22;12311;50.866;4.332;2022-08-03T08:42:31;25.70;99.90
24152;DHT22;12311;50.866;4.332;2022-08-03T08:44:57;26.00;99.90
24152;DHT22;12311;50.866;4.332;2022-08-03T08:47:24;26.30;99.90
24152;DHT22;12311;50.866;4.332;2022-08-03T08:49:53;26.30;99.90
24152;DHT22;12311;50.866;4.332;2022-08-03T08:52:27;26.20;99.90
24152;DHT22;12311;50.866;4.332;2022-08-03T08:55:03;26.40;99.90
24152;DHT22;12311;50.866;4.332;2022-08-03T08:57:32;26.40;99.90
24152;DHT22;12311;50.866;4.332;2022-08-03T09:00:00;26.50;99.90
24152;DHT22;12311;50.866;4.332;2022-08-03T09:02:29;26.70;99.90
24152;DHT22;12311;50.866;4.332;2022-08-03T09:04:55;26.70;99.90
24152;DHT22;12311;50.866;4.332;2022-08-03T09:07:22;26.80;99.90
24152;DHT22;12311;50.866;4.332;2022-08-03T09:09:48;26.90;99.90
24152;DHT22;12311;50.866;4.332;2022-08-03T09:12:14;27.00;99.90
24152;DHT22;12311;50.866;4.332;2022-08-03T09:14:39;27.20;99.90
24152;DHT22;12311;50.866;4.332;2022-08-03T09:17:06;27.20;99.90
24152;DHT22;12311;50.866;4.332;2022-08-03T09:19:34;27.40;99.90
24152;DHT22;12311;50.866;4.332;2022-08-03T09:24:34;27.60;99.90
24152;DHT22;12311;50.866;4.332;2022-08-03T09:26:59;27.60;99.90
24152;DHT22;12311;50.866;4.332;2022-08-03T09:29:25;27.50;99.90
24152;DHT22;12311;50.866;4.332;2022-08-03T09:32:00;27.50;99.90
24152;DHT22;12311;50.866;4.332;2022-08-03T09:34:27;27.30;99.90
24152;DHT22;12311;50.866;4.332;2022-08-03T09:36:53;27.30;99.90
24152;DHT22;12311;50.866;4.332;2022-08-03T09:39:22;27.70;99.90
24152;DHT22;12311;50.866;4.332;2022-08-03T09:42:05;27.70;99.90
24152;DHT22;12311;50.866;4.332;2022-08-03T09:44:45;27.90;99.90
24152;DHT22;12311;50.866;4.332;2022-08-03T09:47:13;28.30;99.90
24152;DHT22;12311;50.866;4.332;2022-08-03T09:49:40;28.60;99.90
24152;DHT22;12311;50.866;4.332;2022-08-03T09:52:18;28.80;99.90
24152;DHT22;12311;50.866;4.332;2022-08-03T09:54:52;29.00;99.90
24152;DHT22;12311;50.866;4.332;2022-08-03T09:57:25;29.20;99.90
24152;DHT22;12311;50.866;4.332;2022-08-03T09:59:52;29.10;99.90
24152;DHT22;12311;50.866;4.332;2022-08-03T10:02:23;29.30;99.90
24152;DHT22;12311;50.866;4.332;2022-08-03T10:04:50;29.40;99.90
24152;DHT22;12311;50.866;4.332;2022-08-03T10:07:18;29.90;99.90
24152;DHT22;12311;50.866;4.332;2022-08-03T10:09:56;30.50;99.90
24152;DHT22;12311;50.866;4.332;2022-08-03T10:12:22;30.50;99.90
24152;DHT22;12311;50.866;4.332;2022-08-03T10:14:48;30.70;99.90
24152;DHT22;12311;50.866;4.332;2022-08-03T10:17:14;30.40;99.90
24152;DHT22;12311;50.866;4.332;2022-08-03T10:19:39;30.10;99.90
24152;DHT22;12311;50.866;4.332;2022-08-03T10:22:21;30.00;99.90
24152;DHT22;12311;50.866;4.332;2022-08-03T10:25:08;30.10;99.90
24152;DHT22;12311;50.866;4.332;2022-08-03T10:27:39;30.60;99.90
24152;DHT22;12311;50.866;4.332;2022-08-03T10:30:07;31.30;99.90
24152;DHT22;12311;50.866;4.332;2022-08-03T10:32:41;31.40;99.90
24152;DHT22;12311;50.866;4.332;2022-08-03T10:35:15;31.20;99.90
24152;DHT22;12311;50.866;4.332;2022-08-03T10:37:55;31.90;99.90
24152;DHT22;12311;50.866;4.332;2022-08-03T10:40:22;31.90;99.90
24152;DHT22;12311;50.866;4.332;2022-08-03T10:42:54;31.60;99.90
24152;DHT22;12311;50.866;4.332;2022-08-03T10:45:23;31.50;99.90
24152;DHT22;12311;50.866;4.332;2022-08-03T10:47:51;32.20;99.90
24152;DHT22;12311;50.866;4.332;2022-08-03T10:50:18;32.70;99.90
24152;DHT22;12311;50.866;4.332;2022-08-03T10:53:00;32.10;99.90
24152;DHT22;12311;50.866;4.332;2022-08-03T10:55:33;31.80;99.90
24152;DHT22;12311;50.866;4.332;2022-08-03T11:01:07;33.10;99.90
24152;DHT22;12311;50.866;4.332;2022-08-03T11:03:33;33.50;99.90
24152;DHT22;12311;50.866;4.332;2022-08-03T11:06:23;33.40;99.90
24152;DHT22;12311;50.866;4.332;2022-08-03T11:11:39;34.40;99.40
24152;DHT22;12311;50.866;4.332;2022-08-03T11:14:11;34.50;97.60
24152;DHT22;12311;50.866;4.332;2022-08-03T11:16:48;34.10;97.20
24152;DHT22;12311;50.866;4.332;2022-08-03T11:19:18;33.60;98.00
24152;DHT22;12311;50.866;4.332;2022-08-03T11:35:17;33.40;96.20
24152;DHT22;12311;50.866;4.332;2022-08-03T11:43:00;34.90;93.90
24152;DHT22;12311;50.866;4.332;2022-08-03T11:45:26;34.90;92.10
24152;DHT22;12311;50.866;4.332;2022-08-03T11:47:54;33.80;92.70
24152;DHT22;12311;50.866;4.332;2022-08-03T11:50:21;34.40;93.20
24152;DHT22;12311;50.866;4.332;2022-08-03T11:52:47;35.40;91.80
24152;DHT22;12311;50.866;4.332;2022-08-03T11:55:15;35.30;90.50
24152;DHT22;12311;50.866;4.332;2022-08-03T11:57:41;34.40;91.50
24152;DHT22;12311;50.866;4.332;2022-08-03T12:00:28;33.70;92.40
24152;DHT22;12311;50.866;4.332;2022-08-03T12:02:55;33.60;92.80
24152;DHT22;12311;50.866;4.332;2022-08-03T12:05:45;33.50;92.10
24152;DHT22;12311;50.866;4.332;2022-08-03T12:08:12;33.80;91.00
24152;DHT22;12311;50.866;4.332;2022-08-03T12:10:39;33.80;90.80
24152;DHT22;12311;50.866;4.332;2022-08-03T12:13:08;34.10;91.00
24152;DHT22;12311;50.866;4.332;2022-08-03T12:15:37;33.60;91.30
24152;DHT22;12311;50.866;4.332;2022-08-03T12:18:12;33.20;92.00
24152;DHT22;12311;50.866;4.332;2022-08-03T12:20:38;33.80;90.70
24152;DHT22;12311;50.866;4.332;2022-08-03T12:23:05;33.80;91.10
24152;DHT22;12311;50.866;4.332;2022-08-03T12:25:33;34.10;90.70
24152;DHT22;12311;50.866;4.332;2022-08-03T12:28:25;34.30;90.50
24152;DHT22;12311;50.866;4.332;2022-08-03T12:30:52;34.20;90.50
24152;DHT22;12311;50.866;4.332;2022-08-03T12:33:23;34.60;89.80
24152;DHT22;12311;50.866;4.332;2022-08-03T12:36:03;35.00;88.50
24152;DHT22;12311;50.866;4.332;2022-08-03T12:38:30;35.50;86.40
24152;DHT22;12311;50.866;4.332;2022-08-03T12:41:01;36.10;83.80
24152;DHT22;12311;50.866;4.332;2022-08-03T12:43:27;35.90;82.40
24152;DHT22;12311;50.866;4.332;2022-08-03T12:48:34;37.10;82.30
24152;DHT22;12311;50.866;4.332;2022-08-03T12:51:09;37.40;77.90
24152;DHT22;12311;50.866;4.332;2022-08-03T12:53:35;38.00;74.60
24152;DHT22;12311;50.866;4.332;2022-08-03T12:56:03;38.00;72.80
24152;DHT22;12311;50.866;4.332;2022-08-03T12:58:31;38.70;70.40
24152;DHT22;12311;50.866;4.332;2022-08-03T13:00:58;38.40;69.60
24152;DHT22;12311;50.866;4.332;2022-08-03T13:03:23;38.00;69.80
24152;DHT22;12311;50.866;4.332;2022-08-03T13:05:49;38.10;70.00
24152;DHT22;12311;50.866;4.332;2022-08-03T13:08:23;37.30;71.10
24152;DHT22;12311;50.866;4.332;2022-08-03T13:10:49;37.60;71.10
24152;DHT22;12311;50.866;4.332;2022-08-03T13:13:14;37.20;69.70
24152;DHT22;12311;50.866;4.332;2022-08-03T13:15:41;35.70;72.60
24152;DHT22;12311;50.866;4.332;2022-08-03T13:18:06;36.30;72.30
24152;DHT22;12311;50.866;4.332;2022-08-03T13:20:33;37.00;70.60
24152;DHT22;12311;50.866;4.332;2022-08-03T13:22:59;37.30;69.80
24152;DHT22;12311;50.866;4.332;2022-08-03T13:25:24;38.60;67.50
24152;DHT22;12311;50.866;4.332;2022-08-03T13:27:50;39.20;65.10
24152;DHT22;12311;50.866;4.332;2022-08-03T13:30:17;39.60;64.10
24152;DHT22;12311;50.866;4.332;2022-08-03T13:32:42;39.60;62.60
24152;DHT22;12311;50.866;4.332;2022-08-03T13:35:08;39.80;61.00
24152;DHT22;12311;50.866;4.332;2022-08-03T13:37:34;39.00;62.90
24152;DHT22;12311;50.866;4.332;2022-08-03T13:40:02;39.60;61.80
24152;DHT22;12311;50.866;4.332;2022-08-03T13:42:31;40.10;59.80
24152;DHT22;12311;50.866;4.332;2022-08-03T13:44:57;40.60;58.00
24152;DHT22;12311;50.866;4.332;2022-08-03T13:47:23;40.30;58.80
24152;DHT22;12311;50.866;4.332;2022-08-03T13:49:49;42.10;57.00
24152;DHT22;12311;50.866;4.332;2022-08-03T13:52:18;42.30;54.40
24152;DHT22;12311;50.866;4.332;2022-08-03T13:54:44;41.90;53.20
24152;DHT22;12311;50.866;4.332;2022-08-03T13:57:10;40.80;54.80
24152;DHT22;12311;50.866;4.332;2022-08-03T13:59:36;38.70;57.50
24152;DHT22;12311;50.866;4.332;2022-08-03T14:02:03;37.30;59.10
24152;DHT22;12311;50.866;4.332;2022-08-03T14:04:29;37.90;59.10
24152;DHT22;12311;50.866;4.332;2022-08-03T14:06:54;39.10;57.70
24152;DHT22;12311;50.866;4.332;2022-08-03T14:09:20;39.60;56.30
24152;DHT22;12311;50.866;4.332;2022-08-03T14:11:46;41.90;54.90
24152;DHT22;12311;50.866;4.332;2022-08-03T14:14:12;42.40;52.90
24152;DHT22;12311;50.866;4.332;2022-08-03T14:16:38;42.80;52.60
24152;DHT22;12311;50.866;4.332;2022-08-03T14:19:04;42.00;51.80
24152;DHT22;12311;50.866;4.332;2022-08-03T14:21:30;41.80;52.10
24152;DHT22;12311;50.866;4.332;2022-08-03T14:23:55;41.50;52.10
24152;DHT22;12311;50.866;4.332;2022-08-03T14:26:21;41.70;51.80
24152;DHT22;12311;50.866;4.332;2022-08-03T14:28:47;42.20;51.20
24152;DHT22;12311;50.866;4.332;2022-08-03T14:31:13;42.50;50.40
24152;DHT22;12311;50.866;4.332;2022-08-03T14:33:39;42.10;50.10
24152;DHT22;12311;50.866;4.332;2022-08-03T14:36:05;41.10;51.20
24152;DHT22;12311;50.866;4.332;2022-08-03T14:38:30;40.90;51.60
24152;DHT22;12311;50.866;4.332;2022-08-03T14:40:56;41.30;51.10
24152;DHT22;12311;50.866;4.332;2022-08-03T14:43:22;41.20;51.30
24152;DHT22;12311;50.866;4.332;2022-08-03T14:45:49;42.30;50.50
24152;DHT22;12311;50.866;4.332;2022-08-03T14:48:21;42.70;49.50
24152;DHT22;12311;50.866;4.332;2022-08-03T14:50:47;42.30;49.30
24152;DHT22;12311;50.866;4.332;2022-08-03T14:53:13;41.60;49.60
24152;DHT22;12311;50.866;4.332;2022-08-03T14:55:39;40.90;50.70
24152;DHT22;12311;50.866;4.332;2022-08-03T14:58:04;40.50;51.80
24152;DHT22;12311;50.866;4.332;2022-08-03T15:00:34;40.30;51.50
24152;DHT22;12311;50.866;4.332;2022-08-03T15:03:01;41.20;50.70
24152;DHT22;12311;50.866;4.332;2022-08-03T15:05:27;41.60;49.70
24152;DHT22;12311;50.866;4.332;2022-08-03T15:07:53;40.80;50.70
24152;DHT22;12311;50.866;4.332;2022-08-03T15:10:19;41.10;50.50
24152;DHT22;12311;50.866;4.332;2022-08-03T15:12:44;41.00;50.50
24152;DHT22;12311;50.866;4.332;2022-08-03T15:15:10;42.00;50.10
24152;DHT22;12311;50.866;4.332;2022-08-03T15:17:36;42.80;48.80
24152;DHT22;12311;50.866;4.332;2022-08-03T15:20:02;42.30;48.00
24152;DHT22;12311;50.866;4.332;2022-08-03T15:22:28;41.50;48.70
24152;DHT22;12311;50.866;4.332;2022-08-03T15:24:54;40.50;49.80
24152;DHT22;12311;50.866;4.332;2022-08-03T15:27:21;40.60;49.60
24152;DHT22;12311;50.866;4.332;2022-08-03T15:29:46;39.70;50.90
24152;DHT22;12311;50.866;4.332;2022-08-03T15:32:12;39.80;51.70
24152;DHT22;12311;50.866;4.332;2022-08-03T15:34:38;39.90;51.20
24152;DHT22;12311;50.866;4.332;2022-08-03T15:37:05;40.20;51.00
24152;DHT22;12311;50.866;4.332;2022-08-03T15:39:30;40.10;50.90
24152;DHT22;12311;50.866;4.332;2022-08-03T15:41:56;39.00;52.60
24152;DHT22;12311;50.866;4.332;2022-08-03T15:44:21;38.80;53.60
24152;DHT22;12311;50.866;4.332;2022-08-03T15:46:47;39.40;52.20
24152;DHT22;12311;50.866;4.332;2022-08-03T15:49:13;38.70;52.20
24152;DHT22;12311;50.866;4.332;2022-08-03T15:51:39;38.60;53.00
24152;DHT22;12311;50.866;4.332;2022-08-03T15:54:06;38.10;53.40
24152;DHT22;12311;50.866;4.332;2022-08-03T15:56:35;37.90;53.90
24152;DHT22;12311;50.866;4.332;2022-08-03T15:59:00;37.80;54.70
24152;DHT22;12311;50.866;4.332;2022-08-03T16:01:26;37.80;54.50
24152;DHT22;12311;50.866;4.332;2022-08-03T16:03:52;37.70;54.60
24152;DHT22;12311;50.866;4.332;2022-08-03T16:06:17;37.00;55.30
24152;DHT22;12311;50.866;4.332;2022-08-03T16:08:43;36.70;56.50
24152;DHT22;12311;50.866;4.332;2022-08-03T16:11:10;36.50;56.80
24152;DHT22;12311;50.866;4.332;2022-08-03T16:13:35;36.50;56.50
24152;DHT22;12311;50.866;4.332;2022-08-03T16:16:01;36.30;57.00
24152;DHT22;12311;50.866;4.332;2022-08-03T16:18:29;36.10;57.40
24152;DHT22;12311;50.866;4.332;2022-08-03T16:20:56;36.00;57.80
24152;DHT22;12311;50.866;4.332;2022-08-03T16:23:22;36.10;59.10